sensor_id;sensor_type;location;lat;lon;timestamp;temperature;humidity
72380;SHT30;60354;47.798;12.472;2022-11-10T00:01:36;10.09;90.96
72380;SHT30;60354;47.798;12.472;2022-11-10T00:04:20;10.18;91.56
72380;SHT30;60354;47.798;12.472;2022-11-10T00:07:04;10.23;91.53
72380;SHT30;60354;47.798;12.472;2022-11-10T00:09:48;10.32;91.43
72380;SHT30;60354;47.798;12.472;2022-11-10T00:12:32;10.30;91.74
72380;SHT30;60354;47.798;12.472;2022-11-10T00:15:17;10.26;91.90
72380;SHT30;60354;47.798;12.472;2022-11-10T00:18:19;10.23;91.55
72380;SHT30;60354;47.798;12.472;2022-11-10T00:21:08;10.24;91.45
72380;SHT30;60354;47.798;12.472;2022-11-10T00:23:53;10.23;91.57
72380;SHT30;60354;47.798;12.472;2022-11-10T00:26:37;10.33;91.14
72380;SHT30;60354;47.798;12.472;2022-11-10T00:29:21;10.36;91.04
72380;SHT30;60354;47.798;12.472;2022-11-10T00:32:06;10.41;90.29
72380;SHT30;60354;47.798;12.472;2022-11-10T00:34:50;10.43;90.55
72380;SHT30;60354;47.798;12.472;2022-11-10T00:37:35;10.48;90.18
72380;SHT30;60354;47.798;12.472;2022-11-10T00:40:18;10.44;89.83
72380;SHT30;60354;47.798;12.472;2022-11-10T00:43:02;10.41;90.31
72380;SHT30;60354;47.798;12.472;2022-11-10T00:45:46;10.43;90.19
72380;SHT30;60354;47.798;12.472;2022-11-10T00:48:31;10.43;89.90
72380;SHT30;60354;47.798;12.472;2022-11-10T00:51:22;10.40;90.19
72380;SHT30;60354;47.798;12.472;2022-11-10T00:54:06;10.41;90.04
72380;SHT30;60354;47.798;12.472;2022-11-10T00:56:51;10.41;90.03
72380;SHT30;60354;47.798;12.472;2022-11-10T00:59:35;10.43;90.05
72380;SHT30;60354;47.798;12.472;2022-11-10T01:02:19;10.41;89.80
72380;SHT30;60354;47.798;12.472;2022-11-10T01:05:03;10.43;89.65
72380;SHT30;60354;47.798;12.472;2022-11-10T01:07:47;10.43;89.86
72380;SHT30;60354;47.798;12.472;2022-11-10T01:10:31;10.43;89.98
72380;SHT30;60354;47.798;12.472;2022-11-10T01:13:15;10.41;89.91
72380;SHT30;60354;47.798;12.472;2022-11-10T01:16:04;10.43;89.63
72380;SHT30;60354;47.798;12.472;2022-11-10T01:18:49;10.44;89.28
72380;SHT30;60354;47.798;12.472;2022-11-10T01:21:35;10.41;89.63
72380;SHT30;60354;47.798;12.472;2022-11-10T01:24:19;10.43;89.56
72380;SHT30;60354;47.798;12.472;2022-11-10T01:27:05;10.41;89.58
72380;SHT30;60354;47.798;12.472;2022-11-10T01:29:49;10.41;89.86
72380;SHT30;60354;47.798;12.472;2022-11-10T01:32:33;10.45;89.53
72380;SHT30;60354;47.798;12.472;2022-11-10T01:35:17;10.44;89.25
72380;SHT30;60354;47.798;12.472;2022-11-10T01:38:01;10.43;88.73
72380;SHT30;60354;47.798;12.472;2022-11-10T01:40:45;10.45;89.08
72380;SHT30;60354;47.798;12.472;2022-11-10T01:43:30;10.47;89.11
72380;SHT30;60354;47.798;12.472;2022-11-10T01:46:14;10.48;88.84
72380;SHT30;60354;47.798;12.472;2022-11-10T01:49:01;10.50;89.01
72380;SHT30;60354;47.798;12.472;2022-11-10T01:52:03;10.48;88.66
72380;SHT30;60354;47.798;12.472;2022-11-10T01:54:49;10.48;88.87
72380;SHT30;60354;47.798;12.472;2022-11-10T01:57:35;10.47;89.29
72380;SHT30;60354;47.798;12.472;2022-11-10T02:00:20;10.48;89.09
72380;SHT30;60354;47.798;12.472;2022-11-10T02:03:27;10.44;89.34
72380;SHT30;60354;47.798;12.472;2022-11-10T02:06:12;10.44;89.10
72380;SHT30;60354;47.798;12.472;2022-11-10T02:08:57;10.47;89.58
72380;SHT30;60354;47.798;12.472;2022-11-10T02:11:42;10.41;89.79
72380;SHT30;60354;47.798;12.472;2022-11-10T02:14:27;10.32;89.45
72380;SHT30;60354;47.798;12.472;2022-11-10T02:17:12;10.24;89.06
72380;SHT30;60354;47.798;12.472;2022-11-10T02:20:01;10.10;89.25
72380;SHT30;60354;47.798;12.472;2022-11-10T02:22:47;10.12;88.99
72380;SHT30;60354;47.798;12.472;2022-11-10T02:25:33;10.05;88.75
72380;SHT30;60354;47.798;12.472;2022-11-10T02:28:17;9.96;89.23
72380;SHT30;60354;47.798;12.472;2022-11-10T02:31:02;9.95;89.25
72380;SHT30;60354;47.798;12.472;2022-11-10T02:33:46;9.87;89.32
72380;SHT30;60354;47.798;12.472;2022-11-10T02:36:30;9.81;89.43
72380;SHT30;60354;47.798;12.472;2022-11-10T02:39:14;9.81;89.40
72380;SHT30;60354;47.798;12.472;2022-11-10T02:41:58;9.71;89.66
72380;SHT30;60354;47.798;12.472;2022-11-10T02:44:42;9.72;89.44
72380;SHT30;60354;47.798;12.472;2022-11-10T02:47:26;9.76;89.59
72380;SHT30;60354;47.798;12.472;2022-11-10T02:50:10;9.78;89.66
72380;SHT30;60354;47.798;12.472;2022-11-10T02:52:54;9.71;89.91
72380;SHT30;60354;47.798;12.472;2022-11-10T02:55:38;9.69;90.31
72380;SHT30;60354;47.798;12.472;2022-11-10T02:58:21;9.72;90.65
72380;SHT30;60354;47.798;12.472;2022-11-10T03:01:06;9.69;90.70
72380;SHT30;60354;47.798;12.472;2022-11-10T03:03:50;9.65;90.89
72380;SHT30;60354;47.798;12.472;2022-11-10T03:06:34;9.68;90.54
72380;SHT30;60354;47.798;12.472;2022-11-10T03:09:18;9.69;90.70
72380;SHT30;60354;47.798;12.472;2022-11-10T03:12:02;9.61;90.78
72380;SHT30;60354;47.798;12.472;2022-11-10T03:14:46;9.68;90.70
72380;SHT30;60354;47.798;12.472;2022-11-10T03:17:30;9.71;90.19
72380;SHT30;60354;47.798;12.472;2022-11-10T03:20:14;9.69;90.22
72380;SHT30;60354;47.798;12.472;2022-11-10T03:23:00;9.66;90.69
72380;SHT30;60354;47.798;12.472;2022-11-10T03:25:45;9.66;90.96
72380;SHT30;60354;47.798;12.472;2022-11-10T03:28:29;9.69;90.90
72380;SHT30;60354;47.798;12.472;2022-11-10T03:31:13;9.68;91.21
72380;SHT30;60354;47.798;12.472;2022-11-10T03:33:57;9.59;91.19
72380;SHT30;60354;47.798;12.472;2022-11-10T03:36:41;9.62;91.16
72380;SHT30;60354;47.798;12.472;2022-11-10T03:39:25;9.58;91.47
72380;SHT30;60354;47.798;12.472;2022-11-10T03:42:09;9.58;91.33
72380;SHT30;60354;47.798;12.472;2022-11-10T03:44:53;9.56;90.97
72380;SHT30;60354;47.798;12.472;2022-11-10T03:47:37;9.48;91.14
72380;SHT30;60354;47.798;12.472;2022-11-10T03:50:21;9.46;91.06
72380;SHT30;60354;47.798;12.472;2022-11-10T03:53:05;9.46;91.05
72380;SHT30;60354;47.798;12.472;2022-11-10T03:55:49;9.49;90.78
72380;SHT30;60354;47.798;12.472;2022-11-10T03:58:33;9.45;90.98
72380;SHT30;60354;47.798;12.472;2022-11-10T04:01:17;9.41;90.98
72380;SHT30;60354;47.798;12.472;2022-11-10T04:04:01;9.44;90.88
72380;SHT30;60354;47.798;12.472;2022-11-10T04:06:45;9.39;91.41
72380;SHT30;60354;47.798;12.472;2022-11-10T04:09:48;9.42;91.26
72380;SHT30;60354;47.798;12.472;2022-11-10T04:12:32;9.36;91.25
72380;SHT30;60354;47.798;12.472;2022-11-10T04:15:35;9.35;91.37
72380;SHT30;60354;47.798;12.472;2022-11-10T04:18:25;9.30;91.49
72380;SHT30;60354;47.798;12.472;2022-11-10T04:21:09;9.24;91.08
72380;SHT30;60354;47.798;12.472;2022-11-10T04:23:54;9.18;91.32
72380;SHT30;60354;47.798;12.472;2022-11-10T04:26:38;9.14;91.72
72380;SHT30;60354;47.798;12.472;2022-11-10T04:29:24;9.14;91.41
72380;SHT30;60354;47.798;12.472;2022-11-10T04:32:07;9.18;91.23
72380;SHT30;60354;47.798;12.472;2022-11-10T04:34:52;9.11;91.53
72380;SHT30;60354;47.798;12.472;2022-11-10T04:37:35;9.17;91.53
72380;SHT30;60354;47.798;12.472;2022-11-10T04:40:20;9.15;91.43
72380;SHT30;60354;47.798;12.472;2022-11-10T04:43:03;9.08;91.66
72380;SHT30;60354;47.798;12.472;2022-11-10T04:45:48;9.11;91.50
72380;SHT30;60354;47.798;12.472;2022-11-10T04:48:32;9.11;91.75
72380;SHT30;60354;47.798;12.472;2022-11-10T04:51:19;9.14;91.59
72380;SHT30;60354;47.798;12.472;2022-11-10T04:54:04;9.07;91.77
72380;SHT30;60354;47.798;12.472;2022-11-10T04:56:49;9.01;92.08
72380;SHT30;60354;47.798;12.472;2022-11-10T04:59:33;8.96;92.43
72380;SHT30;60354;47.798;12.472;2022-11-10T05:02:16;9.00;92.80
72380;SHT30;60354;47.798;12.472;2022-11-10T05:05:01;9.04;92.53
72380;SHT30;60354;47.798;12.472;2022-11-10T05:07:47;9.08;92.84
72380;SHT30;60354;47.798;12.472;2022-11-10T05:10:32;9.00;93.04
72380;SHT30;60354;47.798;12.472;2022-11-10T05:13:17;8.84;94.58
72380;SHT30;60354;47.798;12.472;2022-11-10T05:16:01;8.93;94.69
72380;SHT30;60354;47.798;12.472;2022-11-10T05:18:46;8.94;95.13
72380;SHT30;60354;47.798;12.472;2022-11-10T05:21:29;8.97;95.14
72380;SHT30;60354;47.798;12.472;2022-11-10T05:24:13;8.97;95.23
72380;SHT30;60354;47.798;12.472;2022-11-10T05:26:58;9.00;95.20
72380;SHT30;60354;47.798;12.472;2022-11-10T05:29:42;9.08;94.93
72380;SHT30;60354;47.798;12.472;2022-11-10T05:32:26;9.14;94.87
72380;SHT30;60354;47.798;12.472;2022-11-10T05:35:10;9.15;94.54
72380;SHT30;60354;47.798;12.472;2022-11-10T05:37:53;9.15;94.75
72380;SHT30;60354;47.798;12.472;2022-11-10T05:40:37;9.18;94.20
72380;SHT30;60354;47.798;12.472;2022-11-10T05:43:22;9.20;94.04
72380;SHT30;60354;47.798;12.472;2022-11-10T05:46:06;9.24;93.78
72380;SHT30;60354;47.798;12.472;2022-11-10T05:48:50;9.30;93.71
72380;SHT30;60354;47.798;12.472;2022-11-10T05:51:34;9.36;93.37
72380;SHT30;60354;47.798;12.472;2022-11-10T05:54:18;9.38;93.29
72380;SHT30;60354;47.798;12.472;2022-11-10T05:57:01;9.42;92.83
72380;SHT30;60354;47.798;12.472;2022-11-10T05:59:46;9.42;92.39
72380;SHT30;60354;47.798;12.472;2022-11-10T06:02:29;9.41;92.25
72380;SHT30;60354;47.798;12.472;2022-11-10T06:05:13;9.44;92.16
72380;SHT30;60354;47.798;12.472;2022-11-10T06:07:58;9.45;92.11
72380;SHT30;60354;47.798;12.472;2022-11-10T06:10:43;9.44;92.18
72380;SHT30;60354;47.798;12.472;2022-11-10T06:13:27;9.44;92.05
72380;SHT30;60354;47.798;12.472;2022-11-10T06:16:12;9.46;92.01
72380;SHT30;60354;47.798;12.472;2022-11-10T06:18:55;9.41;91.91
72380;SHT30;60354;47.798;12.472;2022-11-10T06:21:40;9.48;92.01
72380;SHT30;60354;47.798;12.472;2022-11-10T06:24:24;9.48;92.23
72380;SHT30;60354;47.798;12.472;2022-11-10T06:27:08;9.46;91.97
72380;SHT30;60354;47.798;12.472;2022-11-10T06:29:52;9.42;92.53
72380;SHT30;60354;47.798;12.472;2022-11-10T06:32:36;9.45;92.32
72380;SHT30;60354;47.798;12.472;2022-11-10T06:35:20;9.49;92.23
72380;SHT30;60354;47.798;12.472;2022-11-10T06:38:05;9.52;92.06
72380;SHT30;60354;47.798;12.472;2022-11-10T06:40:49;9.52;91.48
72380;SHT30;60354;47.798;12.472;2022-11-10T06:43:33;9.55;91.30
72380;SHT30;60354;47.798;12.472;2022-11-10T06:46:18;9.58;91.39
72380;SHT30;60354;47.798;12.472;2022-11-10T06:49:02;9.61;91.38
72380;SHT30;60354;47.798;12.472;2022-11-10T06:51:46;9.65;91.81
72380;SHT30;60354;47.798;12.472;2022-11-10T06:54:30;9.62;92.10
72380;SHT30;60354;47.798;12.472;2022-11-10T06:57:14;9.63;91.85
72380;SHT30;60354;47.798;12.472;2022-11-10T06:59:58;9.65;91.94
72380;SHT30;60354;47.798;12.472;2022-11-10T07:02:42;9.63;92.01
72380;SHT30;60354;47.798;12.472;2022-11-10T07:05:26;9.63;92.16
72380;SHT30;60354;47.798;12.472;2022-11-10T07:08:12;9.63;92.00
72380;SHT30;60354;47.798;12.472;2022-11-10T07:10:58;9.68;91.92
72380;SHT30;60354;47.798;12.472;2022-11-10T07:13:42;9.63;91.88
72380;SHT30;60354;47.798;12.472;2022-11-10T07:16:26;9.63;91.90
72380;SHT30;60354;47.798;12.472;2022-11-10T07:19:11;9.66;91.97
72380;SHT30;60354;47.798;12.472;2022-11-10T07:21:55;9.61;92.38
72380;SHT30;60354;47.798;12.472;2022-11-10T07:24:39;9.62;92.32
72380;SHT30;60354;47.798;12.472;2022-11-10T07:27:23;9.63;92.04
72380;SHT30;60354;47.798;12.472;2022-11-10T07:30:07;9.54;92.29
72380;SHT30;60354;47.798;12.472;2022-11-10T07:33:05;9.54;92.06
72380;SHT30;60354;47.798;12.472;2022-11-10T07:35:55;9.54;92.23
72380;SHT30;60354;47.798;12.472;2022-11-10T07:38:39;9.55;92.22
72380;SHT30;60354;47.798;12.472;2022-11-10T07:41:24;9.56;92.32
72380;SHT30;60354;47.798;12.472;2022-11-10T07:44:07;9.61;92.15
72380;SHT30;60354;47.798;12.472;2022-11-10T07:46:51;9.58;92.24
72380;SHT30;60354;47.798;12.472;2022-11-10T07:49:35;9.61;92.04
72380;SHT30;60354;47.798;12.472;2022-11-10T07:52:19;9.65;92.09
72380;SHT30;60354;47.798;12.472;2022-11-10T07:55:05;9.62;92.10
72380;SHT30;60354;47.798;12.472;2022-11-10T07:57:49;9.65;92.05
72380;SHT30;60354;47.798;12.472;2022-11-10T08:00:33;9.75;92.02
72380;SHT30;60354;47.798;12.472;2022-11-10T08:03:19;9.79;91.78
72380;SHT30;60354;47.798;12.472;2022-11-10T08:06:04;9.83;91.37
72380;SHT30;60354;47.798;12.472;2022-11-10T08:08:48;9.81;91.95
72380;SHT30;60354;47.798;12.472;2022-11-10T08:11:32;9.82;91.68
72380;SHT30;60354;47.798;12.472;2022-11-10T08:14:16;9.83;91.08
72380;SHT30;60354;47.798;12.472;2022-11-10T08:17:00;10.07;89.14
72380;SHT30;60354;47.798;12.472;2022-11-10T08:19:43;10.14;89.49
72380;SHT30;60354;47.798;12.472;2022-11-10T08:22:27;10.07;90.46
72380;SHT30;60354;47.798;12.472;2022-11-10T08:25:11;10.03;90.66
72380;SHT30;60354;47.798;12.472;2022-11-10T08:28:00;10.02;90.34
72380;SHT30;60354;47.798;12.472;2022-11-10T08:30:45;9.93;90.86
72380;SHT30;60354;47.798;12.472;2022-11-10T08:33:30;9.89;91.49
72380;SHT30;60354;47.798;12.472;2022-11-10T08:36:13;9.86;91.50
72380;SHT30;60354;47.798;12.472;2022-11-10T08:38:57;9.81;91.03
72380;SHT30;60354;47.798;12.472;2022-11-10T08:41:41;9.78;91.26
72380;SHT30;60354;47.798;12.472;2022-11-10T08:44:25;9.71;91.73
72380;SHT30;60354;47.798;12.472;2022-11-10T08:47:09;9.76;91.49
72380;SHT30;60354;47.798;12.472;2022-11-10T08:49:53;9.81;91.79
72380;SHT30;60354;47.798;12.472;2022-11-10T08:52:37;9.89;91.50
72380;SHT30;60354;47.798;12.472;2022-11-10T08:55:21;9.87;90.81
72380;SHT30;60354;47.798;12.472;2022-11-10T08:58:06;9.99;91.42
72380;SHT30;60354;47.798;12.472;2022-11-10T09:00:51;10.07;91.18
72380;SHT30;60354;47.798;12.472;2022-11-10T09:03:35;10.16;91.53
72380;SHT30;60354;47.798;12.472;2022-11-10T09:06:19;10.24;91.03
72380;SHT30;60354;47.798;12.472;2022-11-10T09:09:03;10.29;90.74
72380;SHT30;60354;47.798;12.472;2022-11-10T09:11:47;10.32;90.76
72380;SHT30;60354;47.798;12.472;2022-11-10T09:14:31;10.30;91.04
72380;SHT30;60354;47.798;12.472;2022-11-10T09:17:15;10.32;90.83
72380;SHT30;60354;47.798;12.472;2022-11-10T09:19:59;10.34;90.68
72380;SHT30;60354;47.798;12.472;2022-11-10T09:22:43;10.43;90.42
72380;SHT30;60354;47.798;12.472;2022-11-10T09:25:27;10.43;89.31
72380;SHT30;60354;47.798;12.472;2022-11-10T09:28:12;10.57;89.74
72380;SHT30;60354;47.798;12.472;2022-11-10T09:30:57;10.65;89.82
72380;SHT30;60354;47.798;12.472;2022-11-10T09:33:40;10.69;89.69
72380;SHT30;60354;47.798;12.472;2022-11-10T09:36:24;10.82;90.22
72380;SHT30;60354;47.798;12.472;2022-11-10T09:39:08;10.88;89.41
72380;SHT30;60354;47.798;12.472;2022-11-10T09:41:52;10.94;89.44
72380;SHT30;60354;47.798;12.472;2022-11-10T09:44:46;10.98;88.97
72380;SHT30;60354;47.798;12.472;2022-11-10T09:47:45;11.02;88.56
72380;SHT30;60354;47.798;12.472;2022-11-10T09:50:45;11.06;88.77
72380;SHT30;60354;47.798;12.472;2022-11-10T09:53:56;11.06;88.14
72380;SHT30;60354;47.798;12.472;2022-11-10T09:56:39;11.06;88.49
72380;SHT30;60354;47.798;12.472;2022-11-10T09:59:27;11.08;88.94
72380;SHT30;60354;47.798;12.472;2022-11-10T10:02:32;11.15;88.42
72380;SHT30;60354;47.798;12.472;2022-11-10T10:08:30;11.15;87.54
72380;SHT30;60354;47.798;12.472;2022-11-10T10:11:47;11.32;86.55
72380;SHT30;60354;47.798;12.472;2022-11-10T10:23:34;11.56;86.25
72380;SHT30;60354;47.798;12.472;2022-11-10T10:26:23;11.70;86.37
72380;SHT30;60354;47.798;12.472;2022-11-10T10:29:12;11.84;87.38
72380;SHT30;60354;47.798;12.472;2022-11-10T10:31:58;11.97;86.03
72380;SHT30;60354;47.798;12.472;2022-11-10T10:34:44;12.05;84.86
72380;SHT30;60354;47.798;12.472;2022-11-10T10:40:19;12.11;84.11
72380;SHT30;60354;47.798;12.472;2022-11-10T10:43:03;12.15;83.39
72380;SHT30;60354;47.798;12.472;2022-11-10T10:46:06;12.24;84.58
72380;SHT30;60354;47.798;12.472;2022-11-10T10:49:07;12.24;83.90
72380;SHT30;60354;47.798;12.472;2022-11-10T10:52:06;12.18;83.16
72380;SHT30;60354;47.798;12.472;2022-11-10T10:55:03;12.24;84.12
72380;SHT30;60354;47.798;12.472;2022-11-10T10:57:58;12.29;84.21
72380;SHT30;60354;47.798;12.472;2022-11-10T11:00:43;12.38;83.98
72380;SHT30;60354;47.798;12.472;2022-11-10T11:06:33;12.69;82.62
72380;SHT30;60354;47.798;12.472;2022-11-10T11:09:22;12.76;82.79
72380;SHT30;60354;47.798;12.472;2022-11-10T11:18:26;13.14;79.94
72380;SHT30;60354;47.798;12.472;2022-11-10T11:30:17;13.03;79.09
72380;SHT30;60354;47.798;12.472;2022-11-10T11:39:21;13.59;77.34
72380;SHT30;60354;47.798;12.472;2022-11-10T11:42:29;13.71;77.83
72380;SHT30;60354;47.798;12.472;2022-11-10T11:45:19;13.71;74.70
72380;SHT30;60354;47.798;12.472;2022-11-10T11:51:39;14.02;75.68
72380;SHT30;60354;47.798;12.472;2022-11-10T12:00:21;14.17;75.24
72380;SHT30;60354;47.798;12.472;2022-11-10T12:18:35;14.43;71.73
72380;SHT30;60354;47.798;12.472;2022-11-10T12:21:37;14.59;72.53
72380;SHT30;60354;47.798;12.472;2022-11-10T12:25:09;14.70;72.63
72380;SHT30;60354;47.798;12.472;2022-11-10T12:27:56;14.74;72.32
72380;SHT30;60354;47.798;12.472;2022-11-10T12:30:41;14.80;72.44
72380;SHT30;60354;47.798;12.472;2022-11-10T12:33:45;14.59;72.46
72380;SHT30;60354;47.798;12.472;2022-11-10T12:36:32;14.30;73.75
72380;SHT30;60354;47.798;12.472;2022-11-10T12:39:35;14.23;72.58
72380;SHT30;60354;47.798;12.472;2022-11-10T12:42:22;14.32;73.39
72380;SHT30;60354;47.798;12.472;2022-11-10T12:45:20;14.29;73.45
72380;SHT30;60354;47.798;12.472;2022-11-10T12:48:04;14.17;73.48
72380;SHT30;60354;47.798;12.472;2022-11-10T12:54:28;13.94;73.27
72380;SHT30;60354;47.798;12.472;2022-11-10T12:57:20;14.04;74.37
72380;SHT30;60354;47.798;12.472;2022-11-10T13:00:21;13.95;75.07
72380;SHT30;60354;47.798;12.472;2022-11-10T13:03:13;13.86;72.80
72380;SHT30;60354;47.798;12.472;2022-11-10T13:06:05;13.89;71.81
72380;SHT30;60354;47.798;12.472;2022-11-10T13:08:50;13.79;73.53
72380;SHT30;60354;47.798;12.472;2022-11-10T13:11:35;13.85;74.23
72380;SHT30;60354;47.798;12.472;2022-11-10T13:14:29;13.81;74.60
72380;SHT30;60354;47.798;12.472;2022-11-10T13:20:51;13.48;74.81
72380;SHT30;60354;47.798;12.472;2022-11-10T13:29:53;13.48;75.52
72380;SHT30;60354;47.798;12.472;2022-11-10T13:32:36;13.48;75.09
72380;SHT30;60354;47.798;12.472;2022-11-10T13:43:58;13.23;77.62
72380;SHT30;60354;47.798;12.472;2022-11-10T13:59:31;13.20;76.01
72380;SHT30;60354;47.798;12.472;2022-11-10T14:10:59;13.08;78.35
72380;SHT30;60354;47.798;12.472;2022-11-10T14:13:49;12.89;79.22
72380;SHT30;60354;47.798;12.472;2022-11-10T14:16:39;12.69;78.84
72380;SHT30;60354;47.798;12.472;2022-11-10T14:19:42;12.60;78.71
72380;SHT30;60354;47.798;12.472;2022-11-10T14:22:34;12.67;78.64
72380;SHT30;60354;47.798;12.472;2022-11-10T14:25:34;12.70;78.63
72380;SHT30;60354;47.798;12.472;2022-11-10T14:31:16;12.59;79.04
72380;SHT30;60354;47.798;12.472;2022-11-10T14:34:02;12.55;79.15
72380;SHT30;60354;47.798;12.472;2022-11-10T14:36:51;12.56;79.18
72380;SHT30;60354;47.798;12.472;2022-11-10T14:39:35;12.57;79.09
72380;SHT30;60354;47.798;12.472;2022-11-10T14:42:28;12.57;78.18
72380;SHT30;60354;47.798;12.472;2022-11-10T14:45:14;12.56;78.46
72380;SHT30;60354;47.798;12.472;2022-11-10T14:47:59;12.48;79.13
72380;SHT30;60354;47.798;12.472;2022-11-10T14:50:43;12.44;79.20
72380;SHT30;60354;47.798;12.472;2022-11-10T14:56:22;12.44;79.14
72380;SHT30;60354;47.798;12.472;2022-11-10T14:59:08;12.34;78.60
72380;SHT30;60354;47.798;12.472;2022-11-10T15:01:57;12.31;78.72
72380;SHT30;60354;47.798;12.472;2022-11-10T15:04:41;12.26;78.71
72380;SHT30;60354;47.798;12.472;2022-11-10T15:07:26;12.01;79.99
72380;SHT30;60354;47.798;12.472;2022-11-10T15:10:17;11.74;81.28
72380;SHT30;60354;47.798;12.472;2022-11-10T15:13:17;11.56;81.94
72380;SHT30;60354;47.798;12.472;2022-11-10T15:16:28;11.42;82.08
72380;SHT30;60354;47.798;12.472;2022-11-10T15:22:25;11.26;81.89
72380;SHT30;60354;47.798;12.472;2022-11-10T15:25:16;10.98;82.95
72380;SHT30;60354;47.798;12.472;2022-11-10T15:28:04;10.79;83.48
72380;SHT30;60354;47.798;12.472;2022-11-10T15:30:55;10.79;83.68
72380;SHT30;60354;47.798;12.472;2022-11-10T15:33:46;10.72;83.73
72380;SHT30;60354;47.798;12.472;2022-11-10T15:36:34;10.69;83.74
72380;SHT30;60354;47.798;12.472;2022-11-10T15:39:22;10.67;83.98
72380;SHT30;60354;47.798;12.472;2022-11-10T15:42:23;10.65;84.20
72380;SHT30;60354;47.798;12.472;2022-11-10T15:45:07;10.63;84.36
72380;SHT30;60354;47.798;12.472;2022-11-10T15:47:51;10.67;84.06
72380;SHT30;60354;47.798;12.472;2022-11-10T15:50:35;10.51;84.54
72380;SHT30;60354;47.798;12.472;2022-11-10T15:53:31;10.55;84.51
72380;SHT30;60354;47.798;12.472;2022-11-10T15:56:18;10.50;84.14
72380;SHT30;60354;47.798;12.472;2022-11-10T15:59:02;10.40;83.55
72380;SHT30;60354;47.798;12.472;2022-11-10T16:01:47;10.14;84.40
72380;SHT30;60354;47.798;12.472;2022-11-10T16:04:31;10.10;84.36
72380;SHT30;60354;47.798;12.472;2022-11-10T16:07:15;10.02;84.63
72380;SHT30;60354;47.798;12.472;2022-11-10T16:09:59;10.05;84.73
72380;SHT30;60354;47.798;12.472;2022-11-10T16:12:43;9.97;84.23
72380;SHT30;60354;47.798;12.472;2022-11-10T16:15:27;9.99;84.44
72380;SHT30;60354;47.798;12.472;2022-11-10T16:18:17;10.03;84.61
72380;SHT30;60354;47.798;12.472;2022-11-10T16:21:05;9.96;84.88
72380;SHT30;60354;47.798;12.472;2022-11-10T16:23:50;9.92;84.44
72380;SHT30;60354;47.798;12.472;2022-11-10T16:26:34;9.83;83.92
72380;SHT30;60354;47.798;12.472;2022-11-10T16:29:19;9.75;84.08
72380;SHT30;60354;47.798;12.472;2022-11-10T16:32:04;9.74;84.23
72380;SHT30;60354;47.798;12.472;2022-11-10T16:34:48;9.79;84.51
72380;SHT30;60354;47.798;12.472;2022-11-10T16:37:32;9.79;84.40
72380;SHT30;60354;47.798;12.472;2022-11-10T16:40:19;9.76;84.46
72380;SHT30;60354;47.798;12.472;2022-11-10T16:43:03;9.66;84.03
72380;SHT30;60354;47.798;12.472;2022-11-10T16:45:49;9.62;84.04
72380;SHT30;60354;47.798;12.472;2022-11-10T16:48:34;9.24;85.11
72380;SHT30;60354;47.798;12.472;2022-11-10T16:51:26;8.94;86.72
72380;SHT30;60354;47.798;12.472;2022-11-10T16:54:11;9.08;86.82
72380;SHT30;60354;47.798;12.472;2022-11-10T16:56:56;9.07;86.59
72380;SHT30;60354;47.798;12.472;2022-11-10T16:59:40;9.17;86.14
72380;SHT30;60354;47.798;12.472;2022-11-10T17:02:30;9.20;85.71
72380;SHT30;60354;47.798;12.472;2022-11-10T17:05:16;9.17;85.16
72380;SHT30;60354;47.798;12.472;2022-11-10T17:08:01;9.15;85.45
72380;SHT30;60354;47.798;12.472;2022-11-10T17:10:46;8.94;86.10
72380;SHT30;60354;47.798;12.472;2022-11-10T17:13:30;8.87;86.70
72380;SHT30;60354;47.798;12.472;2022-11-10T17:19:22;9.04;85.72
72380;SHT30;60354;47.798;12.472;2022-11-10T17:22:11;9.11;85.89
72380;SHT30;60354;47.798;12.472;2022-11-10T17:24:57;9.13;86.01
72380;SHT30;60354;47.798;12.472;2022-11-10T17:27:40;9.08;85.20
72380;SHT30;60354;47.798;12.472;2022-11-10T17:30:26;8.94;85.07
72380;SHT30;60354;47.798;12.472;2022-11-10T17:33:10;8.97;85.96
72380;SHT30;60354;47.798;12.472;2022-11-10T17:35:56;8.91;85.57
72380;SHT30;60354;47.798;12.472;2022-11-10T17:38:40;8.88;85.31
72380;SHT30;60354;47.798;12.472;2022-11-10T17:41:25;8.79;86.89
72380;SHT30;60354;47.798;12.472;2022-11-10T17:44:13;8.80;86.84
72380;SHT30;60354;47.798;12.472;2022-11-10T17:46:57;8.76;86.03
72380;SHT30;60354;47.798;12.472;2022-11-10T17:49:41;8.63;86.51
72380;SHT30;60354;47.798;12.472;2022-11-10T17:52:25;8.62;86.91
72380;SHT30;60354;47.798;12.472;2022-11-10T17:55:27;8.57;86.33
72380;SHT30;60354;47.798;12.472;2022-11-10T17:58:11;8.53;87.16
72380;SHT30;60354;47.798;12.472;2022-11-10T18:00:55;8.49;86.93
72380;SHT30;60354;47.798;12.472;2022-11-10T18:03:39;8.45;86.31
72380;SHT30;60354;47.798;12.472;2022-11-10T18:06:23;8.48;86.23
72380;SHT30;60354;47.798;12.472;2022-11-10T18:09:07;8.49;85.74
72380;SHT30;60354;47.798;12.472;2022-11-10T18:11:52;8.50;86.10
72380;SHT30;60354;47.798;12.472;2022-11-10T18:14:36;8.53;86.18
72380;SHT30;60354;47.798;12.472;2022-11-10T18:17:20;8.46;86.86
72380;SHT30;60354;47.798;12.472;2022-11-10T18:20:04;8.38;87.23
72380;SHT30;60354;47.798;12.472;2022-11-10T18:22:48;8.48;86.07
72380;SHT30;60354;47.798;12.472;2022-11-10T18:25:33;8.29;86.13
72380;SHT30;60354;47.798;12.472;2022-11-10T18:28:17;8.29;86.52
72380;SHT30;60354;47.798;12.472;2022-11-10T18:31:09;8.31;86.70
72380;SHT30;60354;47.798;12.472;2022-11-10T18:33:54;8.38;87.17
72380;SHT30;60354;47.798;12.472;2022-11-10T18:36:38;8.38;87.34
72380;SHT30;60354;47.798;12.472;2022-11-10T18:39:22;8.41;87.41
72380;SHT30;60354;47.798;12.472;2022-11-10T18:42:05;8.43;87.42
72380;SHT30;60354;47.798;12.472;2022-11-10T18:44:49;8.36;87.26
72380;SHT30;60354;47.798;12.472;2022-11-10T18:47:35;8.35;87.52
72380;SHT30;60354;47.798;12.472;2022-11-10T18:50:19;8.31;86.73
72380;SHT30;60354;47.798;12.472;2022-11-10T18:53:03;8.16;86.97
72380;SHT30;60354;47.798;12.472;2022-11-10T18:55:56;8.12;86.95
72380;SHT30;60354;47.798;12.472;2022-11-10T18:58:41;8.02;87.11
72380;SHT30;60354;47.798;12.472;2022-11-10T19:01:25;7.98;87.06
72380;SHT30;60354;47.798;12.472;2022-11-10T19:04:10;7.91;87.12
72380;SHT30;60354;47.798;12.472;2022-11-10T19:06:55;7.85;87.18
72380;SHT30;60354;47.798;12.472;2022-11-10T19:09:39;7.78;86.85
72380;SHT30;60354;47.798;12.472;2022-11-10T19:12:23;7.75;87.44
72380;SHT30;60354;47.798;12.472;2022-11-10T19:15:07;7.85;85.94
72380;SHT30;60354;47.798;12.472;2022-11-10T19:17:51;7.83;87.02
72380;SHT30;60354;47.798;12.472;2022-11-10T19:20:37;7.83;86.28
72380;SHT30;60354;47.798;12.472;2022-11-10T19:23:21;7.80;85.62
72380;SHT30;60354;47.798;12.472;2022-11-10T19:26:08;7.73;87.06